Time;durP1;ratioP1;P1;durP2;ratioP2;P2;SDS_P1;SDS_P2;PMS_P1;PMS_P2;Temp;Humidity;BMP_temperature;BMP_pressure;BME280_temperature;BME280_humidity;BME280_pressure;Samples;Min_cycle;Max_cycle;Signal;HPM_P1;HPM_P2
2021/03/06 00:01:10;;;;;;;44.80;21.10;;;;;;;1.42;57.50;100129.64;251132;1158;101102;-85
2021/03/06 00:06:13;;;;;;;41.93;19.33;;;;;;;1.39;56.94;100120.08;250961;1151;103118;-85
2021/03/06 00:11:15;;;;;;;47.85;21.20;;;;;;;1.35;57.40;100125.33;251044;1151;102552;-85
2021/03/06 00:16:17;;;;;;;43.97;20.27;;;;;;;1.32;57.41;100135.84;250295;1150;103091;-80
2021/03/06 00:21:19;;;;;;;43.60;20.20;;;;;;;1.28;57.26;100137.61;251229;1158;101043;-84
2021/03/06 00:26:23;;;;;;;44.47;19.57;;;;;;;1.28;57.20;100128.88;251303;1153;102788;-85
2021/03/06 00:31:25;;;;;;;47.40;19.75;;;;;;;1.26;57.65;100133.25;251704;1158;102508;-80
2021/03/06 00:36:27;;;;;;;46.43;20.87;;;;;;;1.26;57.58;100133.25;251473;1149;101123;-84
2021/03/06 00:41:30;;;;;;;45.57;19.07;;;;;;;1.25;57.18;100121.03;251208;1152;101183;-81
2021/03/06 00:46:33;;;;;;;41.70;18.23;;;;;;;1.20;57.51;100126.31;251013;1151;101255;-81
2021/03/06 00:51:35;;;;;;;38.98;16.68;;;;;;;1.20;57.46;100133.31;251037;1158;100969;-81
2021/03/06 00:56:43;;;;;;;42.10;17.73;;;;;;;1.18;57.37;100123.69;250866;1150;101651;-81
2021/03/06 01:01:45;;;;;;;33.37;15.60;;;;;;;1.17;57.41;100129.82;251352;1157;100994;-81
2021/03/06 01:06:49;;;;;;;36.40;15.85;;;;;;;1.17;57.67;100121.95;250933;1152;101572;-80
2021/03/06 01:11:51;;;;;;;35.70;15.55;;;;;;;1.11;57.79;100116.75;250911;1151;103062;-80
2021/03/06 01:16:54;;;;;;;36.10;16.20;;;;;;;1.00;57.46;100123.81;250959;1152;101232;-86
2021/03/06 01:21:56;;;;;;;38.63;15.90;;;;;;;0.92;57.87;100136.97;250962;1151;101391;-81
2021/03/06 01:27:14;;;;;;;38.20;17.30;;;;;;;0.85;57.88;100132.64;251270;1150;102274;-80
2021/03/06 01:32:16;;;;;;;38.53;16.47;;;;;;;0.87;58.27;100135.23;251012;1152;101748;-85
2021/03/06 01:37:18;;;;;;;35.87;16.37;;;;;;;0.88;58.05;100150.97;249534;1150;103152;-84
2021/03/06 01:42:21;;;;;;;34.73;15.43;;;;;;;0.88;58.08;100150.07;251105;1158;101061;-85
2021/03/06 01:47:24;;;;;;;31.27;15.40;;;;;;;0.89;58.38;100151.84;251523;1149;101822;-80
2021/03/06 01:52:27;;;;;;;31.13;14.77;;;;;;;0.84;57.99;100148.34;251180;1157;101394;-80
2021/03/06 01:57:30;;;;;;;40.20;16.50;;;;;;;0.81;58.60;100145.73;251489;1149;101239;-81
2021/03/06 02:02:33;;;;;;;29.70;14.70;;;;;;;0.79;58.40;100147.52;251043;1157;101243;-81
2021/03/06 02:07:36;;;;;;;33.35;15.78;;;;;;;0.78;58.36;100148.38;249754;1151;103244;-86
2021/03/06 02:12:54;;;;;;;37.50;15.45;;;;;;;0.76;58.94;100158.01;250481;1151;101528;-81
2021/03/06 02:18:18;;;;;;;28.43;14.00;;;;;;;0.77;59.00;100150.13;251135;1151;101200;-87
2021/03/06 02:24:11;;;;;;;32.50;13.60;;;;;;;0.77;58.55;100157.98;251078;1151;100887;-87
2021/03/06 02:29:37;;;;;;;31.65;14.05;;;;;;;0.76;58.63;100155.39;250941;1153;101092;-86
2021/03/06 02:34:46;;;;;;;26.30;12.50;;;;;;;0.75;58.77;100158.86;251020;1158;101088;-82
2021/03/06 02:39:51;;;;;;;32.95;14.40;;;;;;;0.72;59.11;100158.91;250971;1151;103074;-87
2021/03/06 02:44:56;;;;;;;33.50;14.85;;;;;;;0.75;58.72;100165.00;251300;1158;101210;-87
2021/03/06 02:50:00;;;;;;;36.33;15.27;;;;;;;0.78;58.76;100164.09;248567;1151;103327;-86
2021/03/06 02:55:07;;;;;;;28.58;13.65;;;;;;;0.78;59.09;100167.61;251798;1151;101039;-83
2021/03/06 03:00:22;;;;;;;42.43;16.53;;;;;;;0.73;58.65;100184.21;251745;1153;101279;-83
2021/03/06 03:05:30;;;;;;;;;;;;;;;0.70;59.05;100180.72;248959;1158;103393;-79
2021/03/06 03:10:36;;;;;;;33.70;15.65;;;;;;;0.67;58.86;100183.34;250873;1151;101333;-80
2021/03/06 03:15:42;;;;;;;38.95;16.45;;;;;;;0.65;59.19;100192.97;251580;1151;101168;-80
2021/03/06 03:20:50;;;;;;;39.00;16.43;;;;;;;0.61;59.27;100199.11;251275;1151;102126;-79
2021/03/06 03:25:56;;;;;;;36.35;16.05;;;;;;;0.62;58.92;100202.59;251285;1150;101164;-79
2021/03/06 03:31:01;;;;;;;32.40;15.28;;;;;;;0.60;59.33;100207.81;251345;1150;101844;-80
2021/03/06 03:36:06;;;;;;;37.95;16.55;;;;;;;0.58;59.13;100213.92;250897;1151;101825;-81
2021/03/06 03:41:10;;;;;;;34.43;17.28;;;;;;;0.59;59.17;100218.31;250983;1153;101142;-80
2021/03/06 03:46:13;;;;;;;;;;;;;;;0.56;59.61;100213.94;249455;1158;103101;-87
2021/03/06 03:51:16;;;;;;;36.47;16.77;;;;;;;0.51;59.61;100217.44;250783;1150;103075;-84
2021/03/06 03:56:18;;;;;;;35.63;17.73;;;;;;;0.43;59.16;100223.56;250717;1151;101519;-83
2021/03/06 04:01:20;;;;;;;38.00;18.85;;;;;;;0.42;59.96;100232.30;249520;1152;103238;-84
2021/03/06 04:06:23;;;;;;;36.85;17.30;;;;;;;0.38;59.76;100240.18;247765;1159;103276;-82
2021/03/06 04:11:25;;;;;;;39.43;18.33;;;;;;;0.33;59.31;100232.31;250522;1152;103030;-82
2021/03/06 04:16:27;;;;;;;38.80;17.30;;;;;;;0.32;59.69;100240.18;251230;1157;101520;-81
2021/03/06 04:21:30;;;;;;;38.05;18.85;;;;;;;0.30;60.09;100229.69;250840;1151;101384;-82
2021/03/06 04:26:32;;;;;;;36.63;17.17;;;;;;;0.30;59.67;100231.44;250625;1158;103194;-88
2021/03/06 04:31:34;;;;;;;39.50;18.00;;;;;;;0.29;60.06;100241.05;249644;1151;103283;-88
2021/03/06 04:36:37;;;;;;;40.10;18.03;;;;;;;0.29;59.91;100248.03;251010;1150;100988;-79
2021/03/06 04:41:39;;;;;;;33.25;17.18;;;;;;;0.27;59.89;100252.39;250206;1151;103084;-86
2021/03/06 04:46:41;;;;;;;38.00;18.25;;;;;;;0.22;60.13;100248.03;251141;1151;101414;-82
2021/03/06 04:51:43;;;;;;;33.18;16.95;;;;;;;0.18;59.98;100259.38;251246;1151;101298;-79
2021/03/06 04:56:45;;;;;;;42.30;17.50;;;;;;;0.17;60.01;100261.98;250378;1151;103157;-80
2021/03/06 05:01:48;;;;;;;34.50;16.30;;;;;;;0.18;59.61;100269.86;250811;1152;101102;-78
2021/03/06 05:06:50;;;;;;;32.80;17.55;;;;;;;0.21;59.91;100271.61;251489;1157;101096;-78
2021/03/06 05:11:57;;;;;;;31.97;16.53;;;;;;;0.25;60.24;100281.20;251112;1151;103520;-78
2021/03/06 05:16:59;;;;;;;38.48;17.28;;;;;;;0.21;59.79;100282.95;251722;1157;101784;-79
2021/03/06 05:22:02;;;;;;;31.60;15.73;;;;;;;0.21;60.07;100290.80;250568;1152;101679;-84
2021/03/06 05:27:04;;;;;;;36.75;16.20;;;;;;;0.16;59.63;100289.91;251072;1151;101619;-84
2021/03/06 05:32:07;;;;;;;33.25;16.20;;;;;;;0.12;60.12;100293.41;250654;1150;103040;-84
2021/03/06 05:37:09;;;;;;;36.20;16.60;;;;;;;0.07;60.07;100289.92;251334;1157;101496;-84
2021/03/06 05:42:12;;;;;;;46.43;19.35;;;;;;;0.06;60.60;100302.98;251039;1151;101192;-82
2021/03/06 05:47:14;;;;;;;47.93;21.20;;;;;;;0.07;60.58;100305.63;251240;1151;101059;-78
2021/03/06 05:52:19;;;;;;;41.55;20.30;;;;;;;0.09;60.36;100319.56;250992;1152;101400;-84
2021/03/06 05:57:22;;;;;;;49.57;21.87;;;;;;;0.14;60.90;100325.70;251038;1152;101137;-79
2021/03/06 06:02:25;;;;;;;37.50;17.10;;;;;;;0.19;60.80;100321.32;250965;1151;102004;-78
2021/03/06 06:07:29;;;;;;;43.70;21.50;;;;;;;0.15;60.35;100335.28;250886;1151;101013;-79
2021/03/06 06:12:31;;;;;;;44.70;21.15;;;;;;;0.17;60.92;100346.64;251196;1150;101452;-84
2021/03/06 06:17:33;;;;;;;41.00;21.20;;;;;;;0.20;60.81;100349.27;251094;1158;101072;-84
2021/03/06 06:22:36;;;;;;;46.08;20.70;;;;;;;0.28;60.80;100359.73;251393;1151;101178;-77
2021/03/06 06:27:38;;;;;;;36.50;19.20;;;;;;;0.26;61.05;100363.22;251460;1157;101499;-78
2021/03/06 06:32:45;;;;;;;42.10;19.75;;;;;;;0.23;60.44;100370.18;250875;1151;101690;-77
2021/03/06 06:38:02;;;;;;;38.63;20.03;;;;;;;0.31;60.49;100385.92;251007;1158;101028;-77
2021/03/06 06:43:24;;;;;;;37.70;16.60;;;;;;;0.32;60.57;100395.52;251308;1150;101133;-77
2021/03/06 06:48:26;;;;;;;33.95;17.25;;;;;;;0.40;60.63;100399.00;251083;1158;101095;-79
2021/03/06 06:53:28;;;;;;;37.80;18.65;;;;;;;0.43;60.47;100399.01;251647;1151;101918;-78
2021/03/06 06:58:34;;;;;;;38.90;19.20;;;;;;;0.51;60.62;100401.66;251750;1157;101255;-79
2021/03/06 07:03:37;;;;;;;34.30;18.45;;;;;;;0.59;61.04;100405.14;251432;1150;101123;-84
2021/03/06 07:08:39;;;;;;;33.27;17.03;;;;;;;0.64;60.58;100411.24;250259;1157;103093;-84
2021/03/06 07:13:41;;;;;;;35.20;17.03;;;;;;;0.73;60.88;100412.14;251211;1153;100953;-84
2021/03/06 07:18:43;;;;;;;33.45;17.35;;;;;;;0.80;60.91;100411.26;251349;1158;101483;-83
2021/03/06 07:23:45;;;;;;;35.85;18.95;;;;;;;0.87;60.39;100418.23;250666;1151;103104;-85
2021/03/06 07:28:47;;;;;;;31.70;15.43;;;;;;;0.94;60.36;100418.22;251256;1157;101329;-86
2021/03/06 07:33:54;;;;;;;33.60;16.80;;;;;;;0.94;60.34;100422.59;250963;1153;101097;-88
2021/03/06 07:39:01;;;;;;;34.58;17.70;;;;;;;1.02;60.78;100413.00;250290;1158;102337;-89
2021/03/06 07:44:06;;;;;;;41.10;19.47;;;;;;;1.24;61.28;100420.83;251198;1150;101448;-90
2021/03/06 07:49:11;;;;;;;38.73;17.47;;;;;;;1.46;60.75;100422.53;250196;1151;102084;-86
2021/03/06 07:54:14;;;;;;;39.10;17.80;;;;;;;1.69;60.20;100424.19;251215;1150;101246;-84
2021/03/06 07:59:16;;;;;;;49.50;24.70;;;;;;;1.79;60.53;100415.41;251348;1152;101224;-84
2021/03/06 08:04:35;;;;;;;43.05;22.65;;;;;;;1.97;60.29;100427.56;251612;1149;100951;-80
2021/03/06 08:09:59;;;;;;;36.50;19.60;;;;;;;2.01;60.31;100419.69;250864;1158;101505;-88
2021/03/06 08:15:24;;;;;;;45.35;20.95;;;;;;;2.11;59.65;100431.89;251602;1151;100905;-89
2021/03/06 08:20:31;;;;;;;39.47;22.00;;;;;;;2.14;59.73;100417.88;251108;1159;101660;-88
2021/03/06 08:25:33;;;;;;;46.70;24.35;;;;;;;2.17;59.39;100419.59;250858;1151;103027;-87
2021/03/06 08:30:36;;;;;;;48.20;24.60;;;;;;;2.21;59.47;100426.56;250912;1158;103458;-90
2021/03/06 08:35:39;;;;;;;45.10;22.80;;;;;;;2.37;60.32;100428.22;249142;1153;103499;-85
2021/03/06 08:40:42;;;;;;;49.15;23.85;;;;;;;2.46;59.69;100428.17;250309;1151;103146;-92
2021/03/06 08:45:44;;;;;;;47.30;24.40;;;;;;;2.53;59.62;100426.38;250281;1151;103008;-92
2021/03/06 08:50:48;;;;;;;47.20;24.57;;;;;;;2.49;59.36;100429.91;249921;1151;103165;-92
2021/03/06 08:55:54;;;;;;;44.30;22.13;;;;;;;2.59;59.39;100431.59;250341;1151;103174;-93
2021/03/06 09:00:59;;;;;;;41.53;21.97;;;;;;;2.66;59.45;100428.03;249906;1151;103267;-90
2021/03/06 09:06:02;;;;;;;36.00;20.50;;;;;;;2.75;59.45;100430.61;249990;1151;103081;-88
2021/03/06 09:11:04;;;;;;;37.35;21.10;;;;;;;2.88;59.24;100433.98;249340;1151;103101;-90
2021/03/06 09:16:11;;;;;;;33.90;19.70;;;;;;;2.95;58.83;100427.78;249756;1151;103077;-89
2021/03/06 09:21:19;;;;;;;32.60;17.80;;;;;;;3.01;58.97;100430.37;248007;1151;103137;-89
2021/03/06 09:26:25;;;;;;;34.90;16.30;;;;;;;3.17;58.90;100428.48;249280;1151;103416;-88
2021/03/06 09:31:31;;;;;;;36.50;18.30;;;;;;;3.27;58.65;100432.77;249576;1151;103203;-85
2021/03/06 09:36:33;;;;;;;27.90;14.50;;;;;;;3.46;59.29;100422.91;250453;1151;103221;-75
2021/03/06 09:41:42;;;;;;;23.25;13.25;;;;;;;4.14;60.37;100432.63;249203;1158;103282;-75
2021/03/06 09:46:45;;;;;;;22.20;12.70;;;;;;;4.60;58.07;100439.90;250528;1151;101398;-85
2021/03/06 09:51:54;;;;;;;26.68;14.10;;;;;;;4.47;56.78;100431.29;251467;1157;101066;-82
2021/03/06 09:57:00;;;;;;;28.03;14.83;;;;;;;4.25;56.67;100431.61;251117;1151;102568;-86
2021/03/06 10:02:08;;;;;;;24.00;14.05;;;;;;;4.14;56.47;100437.90;249518;1157;103160;-86
2021/03/06 10:07:12;;;;;;;26.45;14.50;;;;;;;3.97;56.58;100440.75;251172;1151;101441;-84
2021/03/06 10:12:17;;;;;;;33.27;14.87;;;;;;;3.92;56.62;100448.72;251340;1158;102614;-84
2021/03/06 10:17:24;;;;;;;29.20;14.80;;;;;;;3.85;56.28;100454.09;251041;1151;101644;-86
2021/03/06 10:22:44;;;;;;;28.00;13.30;;;;;;;3.90;56.20;100466.28;250022;1158;103262;-89
2021/03/06 10:27:47;;;;;;;25.93;13.27;;;;;;;3.99;56.56;100449.52;248222;1151;103228;-90
2021/03/06 10:32:53;;;;;;;25.90;13.20;;;;;;;4.12;56.49;100451.11;248957;1152;103088;-84
2021/03/06 10:37:56;;;;;;;24.70;13.35;;;;;;;4.25;56.49;100457.95;249119;1151;103241;-86
2021/03/06 10:42:58;;;;;;;26.50;12.70;;;;;;;4.45;56.05;100452.41;249104;1151;103587;-86
2021/03/06 10:48:03;;;;;;;23.95;12.00;;;;;;;4.44;55.64;100447.14;248514;1151;103177;-87
2021/03/06 10:53:13;;;;;;;22.75;12.35;;;;;;;4.59;55.57;100446.08;251569;1151;101075;-86
2021/03/06 10:58:16;;;;;;;21.75;12.25;;;;;;;4.49;55.30;100450.61;251376;1150;101048;-88
2021/03/06 11:03:18;;;;;;;23.45;12.90;;;;;;;4.47;55.36;100436.56;250938;1151;102190;-87
2021/03/06 11:08:21;;;;;;;26.80;13.67;;;;;;;4.63;55.83;100430.17;250918;1151;101664;-87
2021/03/06 11:13:45;;;;;;;25.47;13.57;;;;;;;4.87;55.53;100428.91;250385;1151;103121;-86
2021/03/06 11:18:47;;;;;;;23.65;11.85;;;;;;;5.05;55.26;100418.94;251543;1150;101162;-88
2021/03/06 11:23:49;;;;;;;25.57;13.50;;;;;;;5.05;54.97;100414.53;251302;1151;101177;-86
2021/03/06 11:28:54;;;;;;;26.78;13.60;;;;;;;4.97;55.00;100406.76;251252;1150;100990;-88
2021/03/06 11:33:56;;;;;;;27.15;13.10;;;;;;;5.05;54.93;100406.62;250880;1153;101499;-81
2021/03/06 11:38:58;;;;;;;27.33;13.87;;;;;;;5.11;55.29;100405.65;251083;1151;101181;-88
2021/03/06 11:44:01;;;;;;;25.57;13.00;;;;;;;5.19;55.02;100385.26;251395;1157;101145;-86
2021/03/06 11:49:05;;;;;;;27.03;15.03;;;;;;;5.27;54.90;100391.28;251146;1151;101256;-90
2021/03/06 11:54:07;;;;;;;28.55;15.90;;;;;;;5.30;55.07;100387.69;251151;1158;101105;-86
2021/03/06 11:59:10;;;;;;;30.07;14.20;;;;;;;5.11;54.99;100377.49;250487;1150;103210;-87
2021/03/06 12:04:12;;;;;;;25.50;13.00;;;;;;;4.93;55.18;100377.83;250879;1152;101222;-90
2021/03/06 12:09:14;;;;;;;22.85;11.65;;;;;;;4.84;55.15;100384.13;250235;1151;103282;-89
2021/03/06 12:14:17;;;;;;;25.93;11.33;;;;;;;4.64;54.89;100365.13;249647;1151;103229;-89
2021/03/06 12:19:19;;;;;;;23.60;13.70;;;;;;;4.46;55.41;100353.98;251068;1151;101783;-90
2021/03/06 12:24:21;;;;;;;24.13;13.30;;;;;;;4.78;55.59;100352.58;251229;1151;103156;-87
2021/03/06 12:29:23;;;;;;;23.35;13.35;;;;;;;5.13;55.74;100348.42;251448;1150;101397;-86
2021/03/06 12:34:26;;;;;;;23.40;12.90;;;;;;;5.41;55.36;100339.09;251812;1157;101176;-86
2021/03/06 12:39:28;;;;;;;19.50;11.20;;;;;;;5.69;55.31;100338.52;251743;1149;102307;-86
2021/03/06 12:44:30;;;;;;;18.90;11.10;;;;;;;5.92;54.89;100328.36;251704;1157;100920;-86
2021/03/06 12:49:32;;;;;;;20.35;10.65;;;;;;;5.92;53.61;100333.64;252138;1149;101472;-87
2021/03/06 12:54:35;;;;;;;18.45;10.70;;;;;;;5.69;52.75;100344.67;251728;1157;101223;-87
2021/03/06 12:59:38;;;;;;;17.87;8.67;;;;;;;5.34;53.71;100334.84;251648;1150;101244;-87
2021/03/06 13:04:41;;;;;;;17.23;8.97;;;;;;;5.14;54.07;100326.44;251016;1157;101209;-88
2021/03/06 13:09:43;;;;;;;14.80;7.70;;;;;;;5.21;53.43;100326.28;251449;1150;101097;-86
2021/03/06 13:14:45;;;;;;;14.05;6.55;;;;;;;5.48;53.53;100315.22;251050;1158;101499;-89
2021/03/06 13:19:48;;;;;;;14.50;7.25;;;;;;;5.51;53.37;100309.88;250956;1151;101114;-81
2021/03/06 13:24:51;;;;;;;13.20;7.67;;;;;;;5.27;52.62;100301.55;251055;1150;101240;-87
2021/03/06 13:29:53;;;;;;;17.05;8.35;;;;;;;5.13;52.30;100307.10;251120;1149;101669;-89
2021/03/06 13:34:55;;;;;;;15.20;8.25;;;;;;;5.04;52.12;100294.08;251249;1151;100859;-90
2021/03/06 13:39:58;;;;;;;15.50;8.27;;;;;;;5.38;52.89;100296.05;250610;1151;103441;-87
2021/03/06 13:45:00;;;;;;;15.27;7.33;;;;;;;5.65;52.39;100290.19;249965;1158;103093;-89
2021/03/06 13:50:07;;;;;;;14.00;7.70;;;;;;;5.78;52.04;100280.22;251360;1151;102439;-89
2021/03/06 13:55:12;;;;;;;19.50;8.30;;;;;;;5.77;51.74;100264.39;250959;1151;101035;-87
2021/03/06 14:00:16;;;;;;;14.07;7.37;;;;;;;5.73;51.81;100270.66;250757;1150;103132;-89
2021/03/06 14:05:19;;;;;;;13.50;7.00;;;;;;;5.68;50.75;100262.84;251897;1157;103166;-86
2021/03/06 14:10:21;;;;;;;13.50;6.00;;;;;;;5.64;50.77;100262.05;250551;1150;103107;-79
2021/03/06 14:15:24;;;;;;;9.68;5.08;;;;;;;5.73;50.01;100249.52;251795;1157;101307;-80
2021/03/06 14:20:28;;;;;;;10.67;4.80;;;;;;;5.70;49.95;100253.95;251756;1150;101112;-79
2021/03/06 14:25:30;;;;;;;10.90;5.40;;;;;;;5.56;49.50;100239.34;251892;1157;100875;-78
2021/03/06 14:30:34;;;;;;;12.90;4.85;;;;;;;5.43;49.07;100244.02;252142;1150;101524;-83
2021/03/06 14:35:37;;;;;;;10.05;4.78;;;;;;;5.36;49.06;100223.93;250272;1157;103137;-86
2021/03/06 14:40:39;;;;;;;10.20;5.05;;;;;;;5.42;49.23;100229.08;250945;1157;103210;-85
2021/03/06 14:45:42;;;;;;;8.45;5.05;;;;;;;5.52;49.20;100227.12;249189;1156;103558;-85
2021/03/06 14:50:47;;;;;;;10.65;5.30;;;;;;;5.63;48.60;100218.03;251391;1150;101093;-79
2021/03/06 14:55:50;;;;;;;9.95;5.30;;;;;;;5.66;48.31;100214.46;250289;1153;103452;-84
2021/03/06 15:00:53;;;;;;;10.38;5.38;;;;;;;5.66;48.42;100211.82;252108;1156;101092;-75
2021/03/06 15:05:56;;;;;;;8.33;5.20;;;;;;;5.65;47.89;100207.45;251942;1151;100908;-75
2021/03/06 15:10:59;;;;;;;13.20;5.47;;;;;;;5.67;47.52;100202.98;251735;1157;101435;-79
2021/03/06 15:16:02;;;;;;;10.30;5.10;;;;;;;5.64;47.81;100201.31;251721;1151;101221;-77
2021/03/06 15:21:04;;;;;;;10.00;5.50;;;;;;;5.58;47.23;100217.29;250147;1157;103222;-75
2021/03/06 15:26:21;;;;;;;11.33;5.80;;;;;;;5.50;47.34;100213.06;251526;1151;103011;-80
2021/03/06 15:31:23;;;;;;;12.60;5.80;;;;;;;5.41;46.97;100208.88;251669;1157;101008;-79
2021/03/06 15:36:26;;;;;;;11.95;5.58;;;;;;;5.30;46.65;100206.48;251747;1152;102025;-79
2021/03/06 15:41:28;;;;;;;9.90;5.90;;;;;;;5.18;47.00;100209.38;252146;1157;101113;-74
2021/03/06 15:46:30;;;;;;;9.95;5.10;;;;;;;5.13;46.80;100206.84;251693;1151;101472;-74
2021/03/06 15:51:33;;;;;;;10.13;5.47;;;;;;;5.10;47.00;100203.40;251657;1157;100982;-75
2021/03/06 15:56:36;;;;;;;12.57;6.37;;;;;;;5.06;46.94;100199.06;252086;1151;100827;-74
2021/03/06 16:01:40;;;;;;;14.40;6.10;;;;;;;4.95;46.98;100202.78;251762;1157;101100;-74
2021/03/06 16:06:48;;;;;;;11.80;5.35;;;;;;;4.90;47.00;100198.52;251765;1151;101120;-75
2021/03/06 16:11:50;;;;;;;10.00;5.30;;;;;;;4.90;47.19;100198.52;251730;1156;101422;-73
2021/03/06 16:16:52;;;;;;;10.67;5.73;;;;;;;4.90;46.95;100203.80;251701;1153;101234;-74
2021/03/06 16:21:55;;;;;;;12.90;6.10;;;;;;;4.85;47.14;100203.01;251973;1157;101708;-76
2021/03/06 16:26:57;;;;;;;11.60;5.25;;;;;;;4.83;46.70;100208.33;251774;1150;102131;-80
2021/03/06 16:32:00;;;;;;;11.90;5.85;;;;;;;4.77;46.79;100221.63;251754;1157;101127;-85
2021/03/06 16:37:03;;;;;;;15.67;6.17;;;;;;;4.77;46.78;100221.63;250720;1151;103024;-82
2021/03/06 16:42:05;;;;;;;16.25;6.90;;;;;;;4.77;46.77;100216.35;251673;1157;101406;-83
2021/03/06 16:47:11;;;;;;;11.55;6.05;;;;;;;4.73;47.08;100218.19;251943;1150;101435;-73
2021/03/06 16:52:14;;;;;;;14.00;6.27;;;;;;;4.70;46.87;100223.52;251685;1157;101060;-81
2021/03/06 16:57:16;;;;;;;14.65;6.30;;;;;;;4.65;46.72;100229.76;251734;1151;100896;-80
2021/03/06 17:02:20;;;;;;;13.10;6.40;;;;;;;4.55;46.77;100230.83;251343;1157;101514;-81
2021/03/06 17:07:23;;;;;;;17.30;7.60;;;;;;;4.49;47.00;100224.78;252023;1149;100995;-80
2021/03/06 17:12:25;;;;;;;15.33;6.67;;;;;;;4.49;46.76;100235.33;252134;1157;102144;-81
2021/03/06 17:17:29;;;;;;;16.67;8.07;;;;;;;4.52;47.07;100237.05;251769;1151;101878;-82
2021/03/06 17:22:31;;;;;;;16.03;7.03;;;;;;;4.51;47.27;100233.52;251818;1157;101200;-82
2021/03/06 17:27:34;;;;;;;15.33;7.23;;;;;;;4.49;47.13;100229.19;251992;1149;101862;-81
2021/03/06 17:32:36;;;;;;;17.50;6.97;;;;;;;4.44;46.73;100231.89;251133;1153;101203;-81
2021/03/06 17:37:39;;;;;;;18.65;7.95;;;;;;;4.38;46.65;100229.39;248401;1151;103159;-72
2021/03/06 17:42:42;;;;;;;18.85;7.80;;;;;;;4.30;46.94;100228.63;251148;1151;101108;-77
2021/03/06 17:47:44;;;;;;;18.00;8.43;;;;;;;4.26;47.11;100234.86;251190;1153;101499;-72
2021/03/06 17:52:46;;;;;;;19.85;8.75;;;;;;;4.25;47.41;100230.50;251508;1157;102446;-74
2021/03/06 17:57:48;;;;;;;19.10;8.43;;;;;;;4.23;47.27;100234.91;250929;1151;101663;-80
2021/03/06 18:02:50;;;;;;;21.03;8.73;;;;;;;4.20;47.17;100237.59;251358;1157;101254;-81
2021/03/06 18:07:53;;;;;;;19.15;8.50;;;;;;;4.11;47.03;100238.63;250894;1151;101125;-74
2021/03/06 18:12:55;;;;;;;21.60;9.77;;;;;;;4.02;47.66;100229.09;251056;1158;101308;-74
2021/03/06 18:17:58;;;;;;;23.10;11.10;;;;;;;3.97;47.31;100217.78;251054;1151;101900;-75
2021/03/06 18:23:00;;;;;;;24.80;12.70;;;;;;;3.92;47.40;100218.74;251086;1158;101538;-75
2021/03/06 18:28:03;;;;;;;25.10;12.60;;;;;;;3.88;47.61;100209.16;251143;1151;101385;-80
2021/03/06 18:33:05;;;;;;;31.40;15.55;;;;;;;3.83;47.58;100213.61;251317;1158;101722;-75
2021/03/06 18:38:08;;;;;;;32.77;14.97;;;;;;;3.84;47.92;100203.08;251346;1151;101142;-74
2021/03/06 18:43:10;;;;;;;34.65;16.05;;;;;;;3.79;47.71;100200.49;251157;1158;101844;-75
2021/03/06 18:48:12;;;;;;;36.15;15.95;;;;;;;3.77;47.84;100206.66;251107;1151;101139;-76
2021/03/06 18:53:30;;;;;;;33.87;16.03;;;;;;;3.71;48.19;100204.16;251053;1152;101095;-73
2021/03/06 18:58:32;;;;;;;38.15;17.55;;;;;;;3.67;48.27;100210.33;251169;1151;101110;-79
2021/03/06 19:03:35;;;;;;;38.45;18.35;;;;;;;3.61;48.20;100198.16;251265;1157;101107;-82
2021/03/06 19:08:38;;;;;;;40.50;18.50;;;;;;;3.58;48.36;100197.33;251011;1151;101576;-81
2021/03/06 19:13:40;;;;;;;40.27;18.43;;;;;;;3.52;48.50;100191.25;251678;1151;101121;-79
2021/03/06 19:18:42;;;;;;;45.00;19.53;;;;;;;3.48;48.35;100186.93;251184;1151;101082;-77
2021/03/06 19:23:45;;;;;;;44.35;20.25;;;;;;;3.43;48.59;100179.98;251017;1158;101119;-81
2021/03/06 19:28:47;;;;;;;39.15;18.70;;;;;;;3.41;48.43;100163.38;251070;1150;101783;-83
2021/03/06 19:33:49;;;;;;;45.35;20.70;;;;;;;3.35;48.60;100169.58;251129;1158;101971;-82
2021/03/06 19:38:51;;;;;;;43.90;20.00;;;;;;;3.35;48.43;100169.58;250090;1153;101872;-82
2021/03/06 19:43:53;;;;;;;44.45;18.75;;;;;;;3.30;48.43;100164.40;251594;1157;101301;-83
2021/03/06 19:48:55;;;;;;;40.10;18.75;;;;;;;3.26;48.84;100167.97;251574;1149;101953;-82
2021/03/06 19:53:58;;;;;;;38.10;16.83;;;;;;;3.23;48.53;100172.41;250330;1157;103305;-82
2021/03/06 19:59:00;;;;;;;37.70;17.75;;;;;;;3.18;48.78;100164.55;251437;1150;101225;-73
2021/03/06 20:04:04;;;;;;;41.60;17.50;;;;;;;3.11;48.46;100162.91;251239;1157;101013;-80
2021/03/06 20:09:06;;;;;;;42.30;18.60;;;;;;;3.08;48.99;100160.31;251215;1151;101325;-76
2021/03/06 20:14:08;;;;;;;36.80;17.65;;;;;;;3.08;49.09;100166.44;250999;1152;101265;-81
2021/03/06 20:19:11;;;;;;;40.10;19.00;;;;;;;3.06;49.18;100173.50;251138;1151;101398;-72
2021/03/06 20:24:16;;;;;;;40.75;18.25;;;;;;;3.00;49.20;100173.57;250107;1158;103203;-73
2021/03/06 20:29:18;;;;;;;40.80;19.50;;;;;;;2.96;49.38;100171.02;250956;1151;101229;-71
2021/03/06 20:34:22;;;;;;;43.80;20.27;;;;;;;2.92;49.45;100162.30;251327;1157;101226;-71
2021/03/06 20:39:24;;;;;;;45.15;21.25;;;;;;;2.93;49.36;100157.91;250717;1153;103104;-80
2021/03/06 20:44:26;;;;;;;50.30;23.20;;;;;;;2.88;49.59;100165.83;251236;1158;101092;-82
2021/03/06 20:49:28;;;;;;;48.23;23.30;;;;;;;2.84;49.83;100161.50;251208;1151;102008;-80
2021/03/06 20:54:30;;;;;;;56.55;26.15;;;;;;;2.80;49.91;100151.92;251093;1158;101986;-79
2021/03/06 20:59:33;;;;;;;59.10;26.10;;;;;;;2.74;50.16;100155.48;251376;1151;100959;-71
2021/03/06 21:04:35;;;;;;;61.40;27.55;;;;;;;2.71;50.25;100149.39;251101;1151;101124;-78
2021/03/06 21:09:37;;;;;;;62.33;29.13;;;;;;;2.67;50.15;100147.70;251385;1150;101253;-71
2021/03/06 21:14:40;;;;;;;65.60;29.15;;;;;;;2.63;50.52;100138.98;250836;1152;102081;-80
2021/03/06 21:19:42;;;;;;;70.00;29.10;;;;;;;2.62;50.49;100136.39;251279;1151;101203;-71
2021/03/06 21:24:44;;;;;;;70.43;30.37;;;;;;;2.57;50.80;100141.68;251658;1157;101211;-79
2021/03/06 21:29:47;;;;;;;64.77;28.37;;;;;;;2.55;50.83;100123.32;251702;1151;101258;-71
2021/03/06 21:34:49;;;;;;;65.63;29.13;;;;;;;2.55;51.08;100122.45;251312;1157;101222;-79
2021/03/06 21:39:51;;;;;;;58.20;29.03;;;;;;;2.51;51.06;100118.09;251656;1153;102220;-79
2021/03/06 21:44:53;;;;;;;58.90;27.90;;;;;;;2.50;50.78;100121.63;251631;1158;101064;-78
2021/03/06 21:49:55;;;;;;;53.25;26.10;;;;;;;2.48;50.88;100116.41;250967;1151;101194;-78
2021/03/06 21:54:57;;;;;;;56.50;26.20;;;;;;;2.45;50.83;100121.69;251614;1157;101320;-78
2021/03/06 22:00:00;;;;;;;47.30;22.37;;;;;;;2.43;50.91;100125.22;251599;1151;101236;-70
2021/03/06 22:05:04;;;;;;;46.95;23.05;;;;;;;2.40;51.19;100112.11;251256;1158;102210;-78
2021/03/06 22:10:07;;;;;;;50.30;23.90;;;;;;;2.39;51.14;100126.14;250949;1151;101352;-79
2021/03/06 22:15:10;;;;;;;46.85;21.10;;;;;;;2.35;51.22;100118.30;251588;1156;101164;-71
2021/03/06 22:20:15;;;;;;;47.90;23.95;;;;;;;2.34;51.31;100118.30;250850;1151;101210;-74
2021/03/06 22:25:23;;;;;;;52.63;25.20;;;;;;;2.29;51.36;100106.98;251009;1151;101179;-78
2021/03/06 22:30:29;;;;;;;57.80;26.50;;;;;;;2.26;51.58;100091.27;251555;1149;101804;-78
2021/03/06 22:35:31;;;;;;;55.80;25.65;;;;;;;2.19;51.36;100090.45;251490;1157;101075;-80
2021/03/06 22:40:33;;;;;;;60.60;28.23;;;;;;;2.13;51.60;100087.89;251123;1150;101098;-80
2021/03/06 22:45:35;;;;;;;63.80;28.70;;;;;;;2.12;51.74;100089.66;251549;1157;101140;-80
2021/03/06 22:50:38;;;;;;;57.50;28.30;;;;;;;2.12;52.16;100094.04;250882;1153;101136;-73